sensor_id;sensor_type;location;lat;lon;timestamp;pressure;altitude;pressure_sealevel;temperature;humidity
8697;BME280;4385;48.848;8.924;2023-02-03T00:02:07;98602.75;;;17.76;100.00
8697;BME280;4385;48.848;8.924;2023-02-03T00:04:32;98598.50;;;17.72;100.00
8697;BME280;4385;48.848;8.924;2023-02-03T00:06:58;98597.66;;;17.67;100.00
8697;BME280;4385;48.848;8.924;2023-02-03T00:09:23;98594.25;;;17.63;100.00
8697;BME280;4385;48.848;8.924;2023-02-03T00:11:48;98589.16;;;17.60;100.00
8697;BME280;4385;48.848;8.924;2023-02-03T00:14:14;98601.06;;;17.58;100.00
8697;BME280;4385;48.848;8.924;2023-02-03T00:16:39;98593.44;;;17.56;100.00
8697;BME280;4385;48.848;8.924;2023-02-03T00:19:04;98590.03;;;17.56;100.00
8697;BME280;4385;48.848;8.924;2023-02-03T00:21:29;98580.69;;;17.55;100.00
8697;BME280;4385;48.848;8.924;2023-02-03T00:23:55;98583.22;;;17.56;100.00
8697;BME280;4385;48.848;8.924;2023-02-03T00:26:20;98591.72;;;17.58;100.00
8697;BME280;4385;48.848;8.924;2023-02-03T00:28:46;98593.41;;;17.60;100.00
8697;BME280;4385;48.848;8.924;2023-02-03T00:33:41;98586.59;;;17.62;100.00
8697;BME280;4385;48.848;8.924;2023-02-03T00:36:06;98595.97;;;17.64;100.00
8697;BME280;4385;48.848;8.924;2023-02-03T00:38:32;98600.19;;;17.67;100.00
8697;BME280;4385;48.848;8.924;2023-02-03T00:40:57;98604.44;;;17.68;100.00
8697;BME280;4385;48.848;8.924;2023-02-03T00:43:22;98611.25;;;17.70;100.00
8697;BME280;4385;48.848;8.924;2023-02-03T00:45:48;98607.84;;;17.72;100.00
8697;BME280;4385;48.848;8.924;2023-02-03T00:48:13;98600.19;;;17.73;100.00
8697;BME280;4385;48.848;8.924;2023-02-03T00:50:39;98592.53;;;17.73;100.00
8697;BME280;4385;48.848;8.924;2023-02-03T00:53:04;98600.19;;;17.73;100.00
8697;BME280;4385;48.848;8.924;2023-02-03T00:55:30;98604.44;;;17.73;100.00
8697;BME280;4385;48.848;8.924;2023-02-03T00:57:55;98606.97;;;17.71;100.00
8697;BME280;4385;48.848;8.924;2023-02-03T01:00:20;98607.84;;;17.70;100.00
8697;BME280;4385;48.848;8.924;2023-02-03T01:02:46;98607.00;;;17.68;100.00
8697;BME280;4385;48.848;8.924;2023-02-03T01:05:11;98610.41;;;17.67;100.00
8697;BME280;4385;48.848;8.924;2023-02-03T01:07:37;98611.25;;;17.64;100.00
8697;BME280;4385;48.848;8.924;2023-02-03T01:10:03;98612.09;;;17.62;100.00
8697;BME280;4385;48.848;8.924;2023-02-03T01:12:29;98608.72;;;17.60;100.00
8697;BME280;4385;48.848;8.924;2023-02-03T01:14:54;98597.66;;;17.57;100.00
8697;BME280;4385;48.848;8.924;2023-02-03T01:17:19;98588.34;;;17.56;100.00
8697;BME280;4385;48.848;8.924;2023-02-03T01:19:45;98584.06;;;17.57;100.00
8697;BME280;4385;48.848;8.924;2023-02-03T01:22:10;98575.59;;;17.60;100.00
8697;BME280;4385;48.848;8.924;2023-02-03T01:24:35;98572.16;;;17.62;100.00
8697;BME280;4385;48.848;8.924;2023-02-03T01:27:01;98571.31;;;17.66;100.00
8697;BME280;4385;48.848;8.924;2023-02-03T01:29:26;98586.59;;;17.71;100.00
8697;BME280;4385;48.848;8.924;2023-02-03T01:31:51;98575.56;;;17.75;100.00
8697;BME280;4385;48.848;8.924;2023-02-03T01:34:17;98568.72;;;17.79;100.00
8697;BME280;4385;48.848;8.924;2023-02-03T01:36:42;98567.03;;;17.82;100.00
8697;BME280;4385;48.848;8.924;2023-02-03T01:39:09;98577.22;;;17.87;100.00
8697;BME280;4385;48.848;8.924;2023-02-03T01:41:36;98580.63;;;17.91;100.00
8697;BME280;4385;48.848;8.924;2023-02-03T01:44:30;98578.91;;;17.93;100.00
8697;BME280;4385;48.848;8.924;2023-02-03T01:46:48;98578.91;;;17.91;100.00
8697;BME280;4385;48.848;8.924;2023-02-03T01:49:22;98584.84;;;17.92;100.00
8697;BME280;4385;48.848;8.924;2023-02-03T01:51:49;98594.19;;;17.90;100.00
8697;BME280;4385;48.848;8.924;2023-02-03T01:54:18;98589.97;;;17.89;100.00
8697;BME280;4385;48.848;8.924;2023-02-03T01:56:51;98587.44;;;17.86;100.00
8697;BME280;4385;48.848;8.924;2023-02-03T01:59:18;98574.69;;;17.84;100.00
8697;BME280;4385;48.848;8.924;2023-02-03T02:01:46;98576.38;;;17.80;100.00
8697;BME280;4385;48.848;8.924;2023-02-03T02:04:12;98573.84;;;17.77;100.00
8697;BME280;4385;48.848;8.924;2023-02-03T02:06:37;98561.09;;;17.74;100.00
8697;BME280;4385;48.848;8.924;2023-02-03T02:09:03;98552.63;;;17.72;100.00
8697;BME280;4385;48.848;8.924;2023-02-03T02:11:29;98533.91;;;17.68;100.00
8697;BME280;4385;48.848;8.924;2023-02-03T02:13:57;98521.19;;;17.67;100.00
8697;BME280;4385;48.848;8.924;2023-02-03T02:19:44;98510.13;;;17.71;100.00
8697;BME280;4385;48.848;8.924;2023-02-03T02:22:23;98509.28;;;17.75;100.00
8697;BME280;4385;48.848;8.924;2023-02-03T02:33:10;98515.16;;;17.90;100.00
8697;BME280;4385;48.848;8.924;2023-02-03T02:44:02;98458.19;;;17.97;100.00
8697;BME280;4385;48.848;8.924;2023-02-03T02:49:29;98493.91;;;17.94;100.00
8697;BME280;4385;48.848;8.924;2023-02-03T02:51:59;98504.94;;;17.93;100.00
8697;BME280;4385;48.848;8.924;2023-02-03T02:54:26;98510.91;;;17.90;100.00
8697;BME280;4385;48.848;8.924;2023-02-03T02:56:56;98510.06;;;17.87;100.00
8697;BME280;4385;48.848;8.924;2023-02-03T02:59:23;98512.63;;;17.83;100.00
8697;BME280;4385;48.848;8.924;2023-02-03T03:01:48;98510.09;;;17.80;100.00
8697;BME280;4385;48.848;8.924;2023-02-03T03:04:17;98504.16;;;17.77;100.00
8697;BME280;4385;48.848;8.924;2023-02-03T03:06:48;98491.44;;;17.74;100.00
8697;BME280;4385;48.848;8.924;2023-02-03T03:09:37;98481.25;;;17.72;100.00
8697;BME280;4385;48.848;8.924;2023-02-03T03:12:14;98482.06;;;17.71;100.00
8697;BME280;4385;48.848;8.924;2023-02-03T03:14:44;98473.59;;;17.70;100.00
8697;BME280;4385;48.848;8.924;2023-02-03T03:17:17;98482.94;;;17.72;100.00
8697;BME280;4385;48.848;8.924;2023-02-03T03:19:49;98479.50;;;17.73;100.00
8697;BME280;4385;48.848;8.924;2023-02-03T03:22:17;98477.81;;;17.76;100.00
8697;BME280;4385;48.848;8.924;2023-02-03T03:24:48;98471.03;;;17.78;100.00
8697;BME280;4385;48.848;8.924;2023-02-03T03:27:19;98474.38;;;17.83;100.00
8697;BME280;4385;48.848;8.924;2023-02-03T03:29:51;98490.53;;;17.87;100.00
8697;BME280;4385;48.848;8.924;2023-02-03T03:32:19;98502.41;;;17.91;100.00
8697;BME280;4385;48.848;8.924;2023-02-03T03:34:44;98512.59;;;17.94;100.00
8697;BME280;4385;48.848;8.924;2023-02-03T03:37:18;98519.41;;;17.95;100.00
8697;BME280;4385;48.848;8.924;2023-02-03T03:39:47;98521.09;;;17.95;100.00
8697;BME280;4385;48.848;8.924;2023-02-03T03:42:50;98518.53;;;17.95;100.00
8697;BME280;4385;48.848;8.924;2023-02-03T03:45:27;98530.44;;;17.93;100.00
8697;BME280;4385;48.848;8.924;2023-02-03T03:48:00;98534.72;;;17.92;100.00
8697;BME280;4385;48.848;8.924;2023-02-03T03:50:36;98532.16;;;17.91;100.00
8697;BME280;4385;48.848;8.924;2023-02-03T03:53:03;98540.66;;;17.90;100.00
8697;BME280;4385;48.848;8.924;2023-02-03T03:55:32;98548.31;;;17.88;100.00
8697;BME280;4385;48.848;8.924;2023-02-03T03:58:02;98550.03;;;17.86;100.00
8697;BME280;4385;48.848;8.924;2023-02-03T04:00:31;98558.53;;;17.83;100.00
8697;BME280;4385;48.848;8.924;2023-02-03T04:03:03;98572.13;;;17.82;100.00
8697;BME280;4385;48.848;8.924;2023-02-03T04:05:29;98572.13;;;17.78;100.00
8697;BME280;4385;48.848;8.924;2023-02-03T04:07:55;98569.59;;;17.76;100.00
8697;BME280;4385;48.848;8.924;2023-02-03T04:12:56;98572.16;;;17.70;100.00
8697;BME280;4385;48.848;8.924;2023-02-03T04:15:21;98572.16;;;17.70;100.00
8697;BME280;4385;48.848;8.924;2023-02-03T04:17:47;98573.03;;;17.69;100.00
8697;BME280;4385;48.848;8.924;2023-02-03T04:20:13;98573.84;;;17.73;100.00
8697;BME280;4385;48.848;8.924;2023-02-03T04:22:38;98582.34;;;17.75;100.00
8697;BME280;4385;48.848;8.924;2023-02-03T04:25:04;98576.38;;;17.79;100.00
8697;BME280;4385;48.848;8.924;2023-02-03T04:27:29;98566.19;;;17.82;100.00
8697;BME280;4385;48.848;8.924;2023-02-03T04:29:55;98561.06;;;17.83;100.00
8697;BME280;4385;48.848;8.924;2023-02-03T04:32:20;98551.72;;;17.86;100.00
8697;BME280;4385;48.848;8.924;2023-02-03T04:34:45;98550.03;;;17.88;100.00
8697;BME280;4385;48.848;8.924;2023-02-03T04:37:11;98537.28;;;17.88;100.00
8697;BME280;4385;48.848;8.924;2023-02-03T04:39:36;98534.72;;;17.89;100.00
8697;BME280;4385;48.848;8.924;2023-02-03T04:42:02;98527.91;;;17.91;100.00
8697;BME280;4385;48.848;8.924;2023-02-03T04:44:27;98527.06;;;17.91;100.00
8697;BME280;4385;48.848;8.924;2023-02-03T04:46:52;98533.84;;;17.92;100.00
8697;BME280;4385;48.848;8.924;2023-02-03T04:49:18;98539.81;;;17.91;100.00
8697;BME280;4385;48.848;8.924;2023-02-03T04:51:43;98546.63;;;17.89;100.00
8697;BME280;4385;48.848;8.924;2023-02-03T04:54:09;98547.47;;;17.88;100.00
8697;BME280;4385;48.848;8.924;2023-02-03T04:56:35;98533.88;;;17.86;100.00
8697;BME280;4385;48.848;8.924;2023-02-03T04:59:00;98540.66;;;17.83;100.00
8697;BME280;4385;48.848;8.924;2023-02-03T05:01:26;98527.94;;;17.79;100.00
8697;BME280;4385;48.848;8.924;2023-02-03T05:03:51;98538.16;;;17.76;100.00
8697;BME280;4385;48.848;8.924;2023-02-03T05:06:16;98537.31;;;17.72;100.00
8697;BME280;4385;48.848;8.924;2023-02-03T05:08:41;98541.56;;;17.68;100.00
8697;BME280;4385;48.848;8.924;2023-02-03T05:11:07;98542.44;;;17.64;100.00
8697;BME280;4385;48.848;8.924;2023-02-03T05:13:32;98546.69;;;17.62;100.00
8697;BME280;4385;48.848;8.924;2023-02-03T05:15:57;98553.47;;;17.62;100.00
8697;BME280;4385;48.848;8.924;2023-02-03T05:18:22;98555.19;;;17.61;100.00
8697;BME280;4385;48.848;8.924;2023-02-03T05:20:48;98562.84;;;17.63;100.00
8697;BME280;4385;48.848;8.924;2023-02-03T05:23:13;98561.97;;;17.62;100.00
8697;BME280;4385;48.848;8.924;2023-02-03T05:25:38;98557.72;;;17.63;100.00
8697;BME280;4385;48.848;8.924;2023-02-03T05:28:04;98550.91;;;17.65;100.00
8697;BME280;4385;48.848;8.924;2023-02-03T05:30:29;98545.81;;;17.65;100.00
8697;BME280;4385;48.848;8.924;2023-02-03T05:32:54;98542.44;;;17.66;100.00
8697;BME280;4385;48.848;8.924;2023-02-03T05:35:19;98554.31;;;17.67;100.00
8697;BME280;4385;48.848;8.924;2023-02-03T05:37:45;98557.72;;;17.69;100.00
8697;BME280;4385;48.848;8.924;2023-02-03T05:40:11;98573.84;;;17.71;100.00
8697;BME280;4385;48.848;8.924;2023-02-03T05:42:55;98557.72;;;17.72;100.00
8697;BME280;4385;48.848;8.924;2023-02-03T05:45:20;98556.00;;;17.71;100.00
8697;BME280;4385;48.848;8.924;2023-02-03T05:47:46;98561.09;;;17.71;100.00
8697;BME280;4385;48.848;8.924;2023-02-03T05:50:11;98559.41;;;17.70;100.00
8697;BME280;4385;48.848;8.924;2023-02-03T05:52:36;98540.72;;;17.68;100.00
8697;BME280;4385;48.848;8.924;2023-02-03T05:55:02;98539.88;;;17.66;100.00
8697;BME280;4385;48.848;8.924;2023-02-03T05:57:27;98535.63;;;17.65;100.00
8697;BME280;4385;48.848;8.924;2023-02-03T05:59:52;98538.16;;;17.63;100.00
8697;BME280;4385;48.848;8.924;2023-02-03T06:02:18;98522.88;;;17.60;100.00
8697;BME280;4385;48.848;8.924;2023-02-03T06:04:43;98518.66;;;17.57;100.00
8697;BME280;4385;48.848;8.924;2023-02-03T06:07:08;98528.84;;;17.54;100.00
8697;BME280;4385;48.848;8.924;2023-02-03T06:09:34;98539.91;;;17.52;100.00
8697;BME280;4385;48.848;8.924;2023-02-03T06:11:59;98528.88;;;17.48;100.00
8697;BME280;4385;48.848;8.924;2023-02-03T06:14:25;98524.63;;;17.47;100.00
8697;BME280;4385;48.848;8.924;2023-02-03T06:16:52;98516.97;;;17.47;100.00
8697;BME280;4385;48.848;8.924;2023-02-03T06:19:17;98521.22;;;17.50;100.00
8697;BME280;4385;48.848;8.924;2023-02-03T06:21:42;98516.97;;;17.53;100.00
8697;BME280;4385;48.848;8.924;2023-02-03T06:24:09;98513.56;;;17.54;100.00
8697;BME280;4385;48.848;8.924;2023-02-03T06:26:35;98522.06;;;17.56;100.00
8697;BME280;4385;48.848;8.924;2023-02-03T06:29:00;98532.25;;;17.58;100.00
8697;BME280;4385;48.848;8.924;2023-02-03T06:31:25;98541.59;;;17.59;100.00
8697;BME280;4385;48.848;8.924;2023-02-03T06:33:50;98534.81;;;17.58;100.00
8697;BME280;4385;48.848;8.924;2023-02-03T06:36:16;98546.69;;;17.59;100.00
8697;BME280;4385;48.848;8.924;2023-02-03T06:38:41;98543.28;;;17.62;100.00
8697;BME280;4385;48.848;8.924;2023-02-03T06:41:06;98533.06;;;17.62;100.00
8697;BME280;4385;48.848;8.924;2023-02-03T06:43:31;98532.25;;;17.61;100.00
8697;BME280;4385;48.848;8.924;2023-02-03T06:45:57;98521.19;;;17.61;100.00
8697;BME280;4385;48.848;8.924;2023-02-03T06:48:22;98520.34;;;17.58;100.00
8697;BME280;4385;48.848;8.924;2023-02-03T06:50:48;98524.63;;;17.56;100.00
8697;BME280;4385;48.848;8.924;2023-02-03T06:53:13;98513.56;;;17.56;100.00
8697;BME280;4385;48.848;8.924;2023-02-03T06:55:38;98517.81;;;17.52;100.00
8697;BME280;4385;48.848;8.924;2023-02-03T06:58:03;98516.97;;;17.47;100.00
8697;BME280;4385;48.848;8.924;2023-02-03T07:00:29;98522.09;;;17.42;100.00
8697;BME280;4385;48.848;8.924;2023-02-03T07:02:55;98519.56;;;17.36;100.00
8697;BME280;4385;48.848;8.924;2023-02-03T07:05:22;98511.06;;;17.31;100.00
8697;BME280;4385;48.848;8.924;2023-02-03T07:07:48;98511.91;;;17.28;100.00
8697;BME280;4385;48.848;8.924;2023-02-03T07:10:14;98507.66;;;17.27;100.00
8697;BME280;4385;48.848;8.924;2023-02-03T07:12:39;98514.47;;;17.27;100.00
8697;BME280;4385;48.848;8.924;2023-02-03T07:15:05;98509.38;;;17.27;100.00
8697;BME280;4385;48.848;8.924;2023-02-03T07:17:30;98505.09;;;17.26;100.00
8697;BME280;4385;48.848;8.924;2023-02-03T07:19:55;98500.00;;;17.27;100.00
8697;BME280;4385;48.848;8.924;2023-02-03T07:22:21;98503.41;;;17.26;100.00
8697;BME280;4385;48.848;8.924;2023-02-03T07:24:46;98489.00;;;17.27;100.00
8697;BME280;4385;48.848;8.924;2023-02-03T07:27:11;98496.63;;;17.27;100.00
8697;BME280;4385;48.848;8.924;2023-02-03T07:29:36;98499.19;;;17.28;100.00
8697;BME280;4385;48.848;8.924;2023-02-03T07:32:02;98491.53;;;17.28;100.00
8697;BME280;4385;48.848;8.924;2023-02-03T07:34:27;98489.81;;;17.30;100.00
8697;BME280;4385;48.848;8.924;2023-02-03T07:36:53;98498.31;;;17.32;100.00
8697;BME280;4385;48.848;8.924;2023-02-03T07:39:18;98507.66;;;17.30;100.00
8697;BME280;4385;48.848;8.924;2023-02-03T07:41:43;98518.69;;;17.32;100.00
8697;BME280;4385;48.848;8.924;2023-02-03T07:44:09;98525.47;;;17.30;100.00
8697;BME280;4385;48.848;8.924;2023-02-03T07:46:34;98524.66;;;17.30;100.00
8697;BME280;4385;48.848;8.924;2023-02-03T07:49:04;98536.53;;;17.29;100.00
8697;BME280;4385;48.848;8.924;2023-02-03T07:51:30;98543.31;;;17.26;100.00
8697;BME280;4385;48.848;8.924;2023-02-03T07:53:55;98537.38;;;17.25;100.00
8697;BME280;4385;48.848;8.924;2023-02-03T07:56:21;98545.88;;;17.24;100.00
8697;BME280;4385;48.848;8.924;2023-02-03T07:58:46;98547.59;;;17.22;100.00
8697;BME280;4385;48.848;8.924;2023-02-03T08:01:14;98556.06;;;17.21;100.00
8697;BME280;4385;48.848;8.924;2023-02-03T08:03:40;98569.66;;;17.20;100.00
8697;BME280;4385;48.848;8.924;2023-02-03T08:06:06;98574.75;;;17.18;100.00
8697;BME280;4385;48.848;8.924;2023-02-03T08:08:32;98571.34;;;17.18;100.00
8697;BME280;4385;48.848;8.924;2023-02-03T08:10:58;98566.25;;;17.16;100.00
8697;BME280;4385;48.848;8.924;2023-02-03T08:13:23;98572.19;;;17.17;100.00
8697;BME280;4385;48.848;8.924;2023-02-03T08:15:48;98573.06;;;17.17;100.00
8697;BME280;4385;48.848;8.924;2023-02-03T08:18:13;98565.41;;;17.19;100.00
8697;BME280;4385;48.848;8.924;2023-02-03T08:20:39;98573.88;;;17.19;100.00
8697;BME280;4385;48.848;8.924;2023-02-03T08:23:04;98578.97;;;17.19;100.00
8697;BME280;4385;48.848;8.924;2023-02-03T08:25:30;98592.56;;;17.22;100.00
8697;BME280;4385;48.848;8.924;2023-02-03T08:27:55;98582.38;;;17.22;100.00
8697;BME280;4385;48.848;8.924;2023-02-03T08:30:21;98577.28;;;17.23;100.00
8697;BME280;4385;48.848;8.924;2023-02-03T08:32:47;98586.63;;;17.24;100.00
8697;BME280;4385;48.848;8.924;2023-02-03T08:35:13;98563.69;;;17.26;100.00
8697;BME280;4385;48.848;8.924;2023-02-03T08:37:38;98574.75;;;17.29;100.00
8697;BME280;4385;48.848;8.924;2023-02-03T08:40:04;98584.06;;;17.33;100.00
8697;BME280;4385;48.848;8.924;2023-02-03T08:42:30;98595.97;;;17.35;100.00
8697;BME280;4385;48.848;8.924;2023-02-03T08:44:56;98583.25;;;17.35;100.00
8697;BME280;4385;48.848;8.924;2023-02-03T08:47:21;98603.63;;;17.35;100.00
8697;BME280;4385;48.848;8.924;2023-02-03T08:49:46;98597.66;;;17.34;100.00
8697;BME280;4385;48.848;8.924;2023-02-03T08:52:12;98580.69;;;17.35;100.00
8697;BME280;4385;48.848;8.924;2023-02-03T08:54:38;98576.44;;;17.33;100.00
8697;BME280;4385;48.848;8.924;2023-02-03T08:57:03;98581.53;;;17.32;100.00
8697;BME280;4385;48.848;8.924;2023-02-03T08:59:29;98577.28;;;17.31;100.00
8697;BME280;4385;48.848;8.924;2023-02-03T09:01:55;98581.53;;;17.27;100.00
8697;BME280;4385;48.848;8.924;2023-02-03T09:04:21;98582.38;;;17.26;100.00
8697;BME280;4385;48.848;8.924;2023-02-03T09:06:52;98570.50;;;17.25;100.00
8697;BME280;4385;48.848;8.924;2023-02-03T09:09:23;98566.25;;;17.24;100.00
8697;BME280;4385;48.848;8.924;2023-02-03T09:11:50;98571.34;;;17.24;100.00
8697;BME280;4385;48.848;8.924;2023-02-03T09:14:15;98575.59;;;17.24;100.00
8697;BME280;4385;48.848;8.924;2023-02-03T09:16:40;98566.25;;;17.24;100.00
8697;BME280;4385;48.848;8.924;2023-02-03T09:19:06;98562.00;;;17.25;100.00
8697;BME280;4385;48.848;8.924;2023-02-03T09:21:31;98563.69;;;17.26;100.00
8697;BME280;4385;48.848;8.924;2023-02-03T09:23:59;98558.59;;;17.26;100.00
8697;BME280;4385;48.848;8.924;2023-02-03T09:26:25;98559.47;;;17.26;100.00
8697;BME280;4385;48.848;8.924;2023-02-03T09:28:51;98574.75;;;17.26;100.00
8697;BME280;4385;48.848;8.924;2023-02-03T09:31:16;98573.88;;;17.27;100.00
8697;BME280;4385;48.848;8.924;2023-02-03T09:33:42;98563.69;;;17.27;100.00
8697;BME280;4385;48.848;8.924;2023-02-03T09:36:09;98559.47;;;17.29;100.00
8697;BME280;4385;48.848;8.924;2023-02-03T09:38:34;98561.16;;;17.30;100.00
8697;BME280;4385;48.848;8.924;2023-02-03T09:44:03;98574.75;;;17.29;100.00
8697;BME280;4385;48.848;8.924;2023-02-03T09:46:37;98573.88;;;17.29;100.00
8697;BME280;4385;48.848;8.924;2023-02-03T09:52:08;98564.56;;;17.28;100.00
8697;BME280;4385;48.848;8.924;2023-02-03T09:54:37;98562.88;;;17.27;100.00
8697;BME280;4385;48.848;8.924;2023-02-03T09:57:15;98563.69;;;17.24;100.00
8697;BME280;4385;48.848;8.924;2023-02-03T09:59:42;98551.81;;;17.23;100.00
8697;BME280;4385;48.848;8.924;2023-02-03T10:02:24;98556.06;;;17.21;100.00
8697;BME280;4385;48.848;8.924;2023-02-03T10:05:10;98542.50;;;17.19;100.00
8697;BME280;4385;48.848;8.924;2023-02-03T10:08:09;98538.22;;;17.19;100.00
8697;BME280;4385;48.848;8.924;2023-02-03T10:10:39;98547.59;;;17.19;100.00
8697;BME280;4385;48.848;8.924;2023-02-03T10:13:20;98543.31;;;17.18;100.00
8697;BME280;4385;48.848;8.924;2023-02-03T10:16:07;98558.59;;;17.19;100.00
8697;BME280;4385;48.848;8.924;2023-02-03T10:18:43;98562.88;;;17.22;100.00
8697;BME280;4385;48.848;8.924;2023-02-03T10:21:16;98573.88;;;17.23;100.00
8697;BME280;4385;48.848;8.924;2023-02-03T10:23:44;98590.03;;;17.23;100.00
8697;BME280;4385;48.848;8.924;2023-02-03T10:26:18;98588.34;;;17.22;100.00
8697;BME280;4385;48.848;8.924;2023-02-03T10:28:50;98579.84;;;17.23;100.00
8697;BME280;4385;48.848;8.924;2023-02-03T10:31:21;98573.88;;;17.24;100.00
8697;BME280;4385;48.848;8.924;2023-02-03T10:33:58;98573.06;;;17.25;100.00
8697;BME280;4385;48.848;8.924;2023-02-03T10:37:25;98572.19;;;17.28;100.00
8697;BME280;4385;48.848;8.924;2023-02-03T10:39:42;98569.66;;;17.29;100.00
8697;BME280;4385;48.848;8.924;2023-02-03T10:42:10;98557.78;;;17.31;100.00
8697;BME280;4385;48.848;8.924;2023-02-03T10:44:41;98550.94;;;17.30;100.00
8697;BME280;4385;48.848;8.924;2023-02-03T10:47:24;98545.84;;;17.30;100.00
8697;BME280;4385;48.848;8.924;2023-02-03T10:49:53;98539.94;;;17.30;100.00
8697;BME280;4385;48.848;8.924;2023-02-03T10:52:31;98515.28;;;17.30;100.00
8697;BME280;4385;48.848;8.924;2023-02-03T10:55:04;98513.59;;;17.29;100.00
8697;BME280;4385;48.848;8.924;2023-02-03T10:57:30;98506.81;;;17.28;100.00
8697;BME280;4385;48.848;8.924;2023-02-03T11:02:43;98529.75;;;17.27;100.00
8697;BME280;4385;48.848;8.924;2023-02-03T11:07:43;98527.19;;;17.25;100.00
8697;BME280;4385;48.848;8.924;2023-02-03T11:13:21;98517.00;;;17.22;100.00
8697;BME280;4385;48.848;8.924;2023-02-03T11:16:05;98517.00;;;17.22;100.00
8697;BME280;4385;48.848;8.924;2023-02-03T11:21:19;98511.91;;;17.22;100.00
8697;BME280;4385;48.848;8.924;2023-02-03T11:26:21;98504.28;;;17.24;100.00
8697;BME280;4385;48.848;8.924;2023-02-03T11:28:49;98511.91;;;17.25;100.00
8697;BME280;4385;48.848;8.924;2023-02-03T11:31:19;98488.13;;;17.26;100.00
8697;BME280;4385;48.848;8.924;2023-02-03T11:33:52;98494.09;;;17.28;100.00
8697;BME280;4385;48.848;8.924;2023-02-03T11:36:19;98493.22;;;17.29;100.00
8697;BME280;4385;48.848;8.924;2023-02-03T11:38:44;98481.34;;;17.30;100.00
8697;BME280;4385;48.848;8.924;2023-02-03T11:41:18;98490.66;;;17.29;100.00
8697;BME280;4385;48.848;8.924;2023-02-03T11:43:44;98483.03;;;17.29;100.00
8697;BME280;4385;48.848;8.924;2023-02-03T11:46:10;98481.34;;;17.30;100.00
8697;BME280;4385;48.848;8.924;2023-02-03T11:48:38;98475.38;;;17.32;100.00
8697;BME280;4385;48.848;8.924;2023-02-03T11:51:25;98463.50;;;17.30;100.00
8697;BME280;4385;48.848;8.924;2023-02-03T11:57:35;98443.13;;;17.27;100.00
8697;BME280;4385;48.848;8.924;2023-02-03T11:59:59;98444.81;;;17.25;100.00
8697;BME280;4385;48.848;8.924;2023-02-03T12:02:40;98456.69;;;17.24;100.00
8697;BME280;4385;48.848;8.924;2023-02-03T12:05:24;98457.56;;;17.23;100.00
8697;BME280;4385;48.848;8.924;2023-02-03T12:16:15;98455.88;;;17.19;100.00
8697;BME280;4385;48.848;8.924;2023-02-03T12:19:17;98451.63;;;17.19;100.00
8697;BME280;4385;48.848;8.924;2023-02-03T12:24:57;98459.25;;;17.21;100.00
8697;BME280;4385;48.848;8.924;2023-02-03T12:27:40;98447.38;;;17.23;100.00
8697;BME280;4385;48.848;8.924;2023-02-03T12:30:14;98452.47;;;17.25;100.00
8697;BME280;4385;48.848;8.924;2023-02-03T12:33:09;98447.38;;;17.26;100.00
8697;BME280;4385;48.848;8.924;2023-02-03T12:35:39;98427.84;;;17.28;100.00
8697;BME280;4385;48.848;8.924;2023-02-03T12:38:35;98447.38;;;17.29;100.00
8697;BME280;4385;48.848;8.924;2023-02-03T12:41:08;98439.72;;;17.31;100.00
8697;BME280;4385;48.848;8.924;2023-02-03T12:43:43;98458.41;;;17.33;100.00
8697;BME280;4385;48.848;8.924;2023-02-03T12:49:25;98439.72;;;17.34;100.00
8697;BME280;4385;48.848;8.924;2023-02-03T12:52:00;98429.53;;;17.32;100.00
8697;BME280;4385;48.848;8.924;2023-02-03T12:57:01;98405.75;;;17.30;100.00
8697;BME280;4385;48.848;8.924;2023-02-03T12:59:32;98390.47;;;17.27;100.00
8697;BME280;4385;48.848;8.924;2023-02-03T13:02:10;98396.44;;;17.25;100.00
8697;BME280;4385;48.848;8.924;2023-02-03T13:04:51;98386.25;;;17.20;100.00
8697;BME280;4385;48.848;8.924;2023-02-03T13:07:24;98399.00;;;17.17;100.00
8697;BME280;4385;48.848;8.924;2023-02-03T13:09:57;98381.16;;;17.15;100.00
8697;BME280;4385;48.848;8.924;2023-02-03T13:12:38;98367.56;;;17.15;100.00
8697;BME280;4385;48.848;8.924;2023-02-03T13:15:19;98360.78;;;17.14;100.00
8697;BME280;4385;48.848;8.924;2023-02-03T13:20:27;98369.28;;;17.16;100.00
8697;BME280;4385;48.848;8.924;2023-02-03T13:22:55;98387.13;;;17.17;100.00
8697;BME280;4385;48.848;8.924;2023-02-03T13:25:51;98377.75;;;17.18;100.00
8697;BME280;4385;48.848;8.924;2023-02-03T13:40:12;98355.66;;;17.32;100.00
8697;BME280;4385;48.848;8.924;2023-02-03T13:42:45;98353.94;;;17.35;100.00
8697;BME280;4385;48.848;8.924;2023-02-03T13:47:51;98350.53;;;17.36;100.00
8697;BME280;4385;48.848;8.924;2023-02-03T13:50:28;98360.72;;;17.36;100.00
8697;BME280;4385;48.848;8.924;2023-02-03T13:53:05;98370.06;;;17.33;100.00
8697;BME280;4385;48.848;8.924;2023-02-03T13:55:38;98375.16;;;17.32;100.00
8697;BME280;4385;48.848;8.924;2023-02-03T13:58:17;98376.88;;;17.31;100.00
8697;BME280;4385;48.848;8.924;2023-02-03T14:05:59;98378.59;;;17.23;100.00
8697;BME280;4385;48.848;8.924;2023-02-03T14:16:39;98387.13;;;17.19;100.00
8697;BME280;4385;48.848;8.924;2023-02-03T14:19:09;98386.25;;;17.20;100.00
8697;BME280;4385;48.848;8.924;2023-02-03T14:21:43;98397.28;;;17.20;100.00
8697;BME280;4385;48.848;8.924;2023-02-03T14:24:11;98399.84;;;17.22;100.00
8697;BME280;4385;48.848;8.924;2023-02-03T14:26:41;98393.88;;;17.23;100.00
8697;BME280;4385;48.848;8.924;2023-02-03T14:29:28;98400.66;;;17.26;100.00
8697;BME280;4385;48.848;8.924;2023-02-03T14:32:05;98389.63;;;17.25;100.00
8697;BME280;4385;48.848;8.924;2023-02-03T14:34:41;98385.38;;;17.27;100.00
8697;BME280;4385;48.848;8.924;2023-02-03T14:37:11;98393.00;;;17.30;100.00
8697;BME280;4385;48.848;8.924;2023-02-03T14:40:05;98385.34;;;17.30;100.00
8697;BME280;4385;48.848;8.924;2023-02-03T14:45:53;98398.94;;;17.34;100.00
8697;BME280;4385;48.848;8.924;2023-02-03T14:57:12;98393.00;;;17.27;100.00
8697;BME280;4385;48.848;8.924;2023-02-03T14:59:54;98404.94;;;17.24;100.00
8697;BME280;4385;48.848;8.924;2023-02-03T15:02:26;98405.75;;;17.21;100.00
8697;BME280;4385;48.848;8.924;2023-02-03T15:07:41;98416.81;;;17.14;100.00
8697;BME280;4385;48.848;8.924;2023-02-03T15:12:46;98413.44;;;17.12;100.00
8697;BME280;4385;48.848;8.924;2023-02-03T15:17:46;98410.88;;;17.13;100.00
8697;BME280;4385;48.848;8.924;2023-02-03T15:23:00;98404.09;;;17.17;100.00